Time;durP1;ratioP1;P1;durP2;ratioP2;P2;SDS_P1;SDS_P2;PMS_P1;PMS_P2;Temp;Humidity;BMP_temperature;BMP_pressure;BME280_temperature;BME280_humidity;BME280_pressure;Samples;Min_cycle;Max_cycle;Signal;HPM_P1;HPM_P2
2020/12/01 00:00:48;;;;;;;13.07;10.13;;;1.40;99.90;;;-0.46;100.00;100435.28;3893040;31;99883;-61
2020/12/01 00:03:14;;;;;;;13.67;10.27;;;1.40;99.90;;;-0.50;100.00;100434.63;3846180;31;101578;-60
2020/12/01 00:05:41;;;;;;;13.30;9.70;;;1.30;99.90;;;-0.50;100.00;100433.75;3706229;31;101370;-61
2020/12/01 00:08:08;;;;;;;12.80;10.37;;;1.30;99.90;;;-0.49;100.00;100427.53;3704867;31;99840;-60
2020/12/01 00:10:35;;;;;;;15.83;10.67;;;1.40;99.90;;;-0.54;100.00;100435.69;3725394;31;100154;-60
2020/12/01 00:13:02;;;;;;;15.57;11.00;;;1.30;99.90;;;-0.52;100.00;100422.47;3886270;31;101764;-61
2020/12/01 00:15:29;;;;;;;14.13;10.17;;;1.30;99.90;;;-0.58;100.00;100418.41;3869414;31;100785;-61
2020/12/01 00:17:57;;;;;;;13.93;11.00;;;1.20;99.90;;;-0.59;100.00;100415.84;3762445;31;100242;-61
2020/12/01 00:20:25;;;;;;;15.27;10.83;;;1.20;99.90;;;-0.61;100.00;100420.34;3720935;31;99948;-60
2020/12/01 00:22:54;;;;;;;14.93;10.20;;;1.30;99.90;;;-0.57;100.00;100421.88;3745239;31;101574;-60
2020/12/01 00:25:21;;;;;;;12.77;10.43;;;1.40;99.90;;;-0.56;100.00;100421.78;3786542;31;101568;-60
2020/12/01 00:27:47;;;;;;;14.90;10.93;;;0.30;99.90;;;-0.56;100.00;100423.56;3700431;31;99948;-62
2020/12/01 00:30:17;;;;;;;13.30;10.23;;;1.40;99.90;;;-0.52;100.00;100427.75;3721782;31;99905;-61
2020/12/01 00:32:44;;;;;;;14.43;10.37;;;1.40;99.90;;;-0.52;100.00;100425.09;3943905;31;100573;-61
2020/12/01 00:35:15;;;;;;;14.30;10.47;;;1.40;99.90;;;-0.46;100.00;100430.00;3788852;31;99896;-60
2020/12/01 00:37:42;;;;;;;14.10;11.13;;;1.50;99.90;;;-0.41;100.00;100422.72;3701678;31;100045;-59
2020/12/01 00:40:11;;;;;;;13.50;10.60;;;1.70;99.90;;;-0.37;100.00;100414.56;3856728;31;100053;-60
2020/12/01 00:42:37;;;;;;;13.50;11.77;;;1.70;99.90;;;-0.35;100.00;100417.13;3763457;31;100657;-58
2020/12/01 00:45:05;;;;;;;15.27;10.33;;;1.80;99.90;;;-0.30;100.00;100422.13;3702298;31;100417;-59
2020/12/01 00:47:31;;;;;;;16.87;11.43;;;1.80;99.90;;;-0.28;100.00;100420.25;3701935;31;99877;-61
2020/12/01 00:49:58;;;;;;;14.57;10.53;;;1.90;99.90;;;-0.24;100.00;100427.03;3883566;31;100196;-60
2020/12/01 00:52:26;;;;;;;12.80;10.60;;;1.90;99.90;;;-0.25;100.00;100417.47;3879764;31;103061;-62
2020/12/01 00:54:52;;;;;;;15.13;11.00;;;1.80;99.90;;;-0.20;100.00;100423.31;3701552;31;101243;-58
2020/12/01 00:57:19;;;;;;;17.00;11.43;;;2.90;99.90;;;-0.14;100.00;100431.72;3690738;31;100001;-61
2020/12/01 00:59:45;;;;;;;13.87;10.53;;;1.90;99.90;;;-0.11;100.00;100423.63;3711723;31;100138;-60
2020/12/01 01:02:19;;;;;;;14.20;10.70;;;2.00;99.90;;;-0.07;100.00;100427.78;3696857;31;101483;-61
2020/12/01 01:04:46;;;;;;;15.23;11.47;;;2.60;99.90;;;-0.04;100.00;100430.25;3701369;31;100943;-62
2020/12/01 01:07:12;;;;;;;16.70;12.00;;;2.10;99.90;;;0.01;100.00;100419.44;3896964;31;100246;-61
2020/12/01 01:09:40;;;;;;;15.20;11.23;;;2.10;99.90;;;0.04;100.00;100419.28;3891134;31;100032;-60
2020/12/01 01:12:06;;;;;;;14.10;11.77;;;2.10;99.90;;;0.02;100.00;100417.66;3800896;31;101672;-60
2020/12/01 01:14:33;;;;;;;14.77;11.37;;;2.30;99.90;;;0.02;100.00;100418.50;3701463;31;100381;-60
2020/12/01 01:16:59;;;;;;;14.80;11.33;;;2.20;99.90;;;0.04;100.00;100415.78;3701831;31;99887;-61
2020/12/01 01:19:25;;;;;;;13.67;11.13;;;2.10;99.90;;;0.02;100.00;100407.13;3723748;31;99962;-60
2020/12/01 01:21:52;;;;;;;14.73;10.67;;;2.20;99.90;;;0.02;100.00;100412.41;3744501;31;101591;-63
2020/12/01 01:24:19;;;;;;;15.47;11.13;;;2.20;99.90;;;0.02;100.00;100410.63;3928922;31;101364;-60
2020/12/01 01:26:51;;;;;;;15.47;11.67;;;2.20;99.90;;;0.00;100.00;100404.63;3824410;31;100030;-61
2020/12/01 01:29:19;;;;;;;16.27;11.63;;;2.30;99.90;;;0.01;100.00;100403.66;3948003;31;100250;-61
2020/12/01 01:31:45;;;;;;;15.20;11.40;;;2.20;99.90;;;0.03;100.00;100401.78;3859500;31;101070;-61
2020/12/01 01:34:12;;;;;;;16.30;11.50;;;2.20;99.90;;;0.06;100.00;100404.25;3697904;31;100106;-61
2020/12/01 01:36:39;;;;;;;16.67;11.87;;;2.30;99.90;;;0.07;100.00;100399.84;3701526;31;100095;-61
2020/12/01 01:39:07;;;;;;;16.20;11.23;;;2.40;99.90;;;0.08;100.00;100398.91;3722864;31;99956;-60
2020/12/01 01:41:36;;;;;;;17.17;11.73;;;2.50;99.90;;;0.05;100.00;100397.28;3942203;31;101427;-62
2020/12/01 01:44:19;;;;;;;14.50;11.07;;;2.30;99.90;;;0.02;100.00;100396.59;3701518;31;100696;-60
2020/12/01 01:46:49;;;;;;;15.37;11.43;;;2.30;99.90;;;-0.01;100.00;100395.88;3801841;31;100070;-60
2020/12/01 01:49:19;;;;;;;15.00;11.70;;;2.20;99.90;;;0.00;100.00;100388.84;3722802;31;99950;-61
2020/12/01 01:51:51;;;;;;;15.17;11.53;;;2.40;99.90;;;-0.03;100.00;100381.13;3864396;31;101139;-60
2020/12/01 01:54:20;;;;;;;17.50;12.07;;;2.20;99.90;;;-0.05;100.00;100383.81;3975722;31;100831;-60
2020/12/01 01:56:51;;;;;;;14.77;11.37;;;2.30;99.90;;;-0.07;100.00;100380.44;3790672;31;100172;-60
2020/12/01 01:59:18;;;;;;;14.03;11.23;;;2.30;99.90;;;-0.04;100.00;100382.91;3765177;31;100010;-61
2020/12/01 02:01:45;;;;;;;15.57;11.23;;;2.20;99.90;;;-0.03;100.00;100383.75;3882821;31;101149;-60
2020/12/01 02:04:15;;;;;;;18.13;13.07;;;2.20;99.90;;;-0.04;100.00;100379.41;3701172;31;100236;-59
2020/12/01 02:06:45;;;;;;;15.73;12.17;;;2.20;99.90;;;-0.05;100.00;100378.56;3701290;31;99863;-60
2020/12/01 02:09:17;;;;;;;17.10;12.23;;;2.30;99.90;;;-0.02;100.00;100381.03;3751421;31;99797;-60
2020/12/01 02:11:46;;;;;;;15.37;12.07;;;2.20;99.90;;;-0.06;100.00;100368.97;3936916;31;100768;-61
2020/12/01 02:14:17;;;;;;;16.03;11.27;;;2.20;99.90;;;-0.03;100.00;100381.97;3700887;31;100326;-63
2020/12/01 02:16:48;;;;;;;15.33;11.97;;;2.30;99.90;;;0.00;100.00;100375.69;3939163;31;100247;-61
2020/12/01 02:19:19;;;;;;;14.57;9.17;;;2.30;99.90;;;0.00;100.00;100378.31;3722183;31;100042;-62
2020/12/01 02:21:46;;;;;;;17.60;13.23;;;2.10;99.90;;;-0.01;100.00;100371.34;3835123;31;101169;-60
2020/12/01 02:24:17;;;;;;;17.67;11.57;;;2.20;99.90;;;0.03;100.00;100372.84;3701060;31;100662;-62
2020/12/01 02:26:48;;;;;;;16.90;11.43;;;2.30;99.90;;;0.05;100.00;100370.97;3928308;31;99971;-63
2020/12/01 02:29:18;;;;;;;15.33;11.90;;;2.30;99.90;;;0.03;100.00;100366.75;3722469;31;99933;-60
2020/12/01 02:31:48;;;;;;;16.57;12.67;;;2.30;99.90;;;0.05;100.00;100364.88;3902002;31;100122;-60
2020/12/01 02:34:18;;;;;;;15.47;11.83;;;2.20;99.90;;;0.05;100.00;100359.59;3701032;31;100550;-60
2020/12/01 02:36:45;;;;;;;14.23;11.53;;;2.30;99.90;;;0.05;100.00;100357.81;3869941;31;100141;-59
2020/12/01 02:39:12;;;;;;;16.10;12.03;;;2.30;99.90;;;0.04;100.00;100361.38;3796665;31;99948;-61
2020/12/01 02:41:39;;;;;;;17.07;12.50;;;2.40;99.90;;;0.07;100.00;100355.97;3761407;31;100720;-63
2020/12/01 02:44:07;;;;;;;15.37;12.40;;;2.30;99.90;;;0.08;100.00;100364.69;3702782;31;99866;-63
2020/12/01 02:46:36;;;;;;;17.53;12.70;;;2.30;99.90;;;0.07;100.00;100361.22;3901793;31;100426;-62
2020/12/01 02:49:04;;;;;;;16.53;12.40;;;2.40;99.90;;;0.09;100.00;100353.25;3711134;31;99998;-62
2020/12/01 02:51:31;;;;;;;16.43;12.50;;;2.40;99.90;;;0.09;100.00;100359.34;3751463;31;101738;-62
2020/12/01 02:53:57;;;;;;;16.30;12.63;;;2.40;99.90;;;0.09;100.00;100358.50;3700550;31;100590;-62
2020/12/01 02:56:24;;;;;;;16.93;13.60;;;3.50;99.90;;;0.09;100.00;100356.72;3896673;31;100020;-62
2020/12/01 02:58:50;;;;;;;20.20;12.73;;;2.40;99.90;;;0.10;100.00;100358.41;3843207;31;99983;-62
2020/12/01 03:01:18;;;;;;;16.13;11.87;;;2.30;99.90;;;0.09;100.00;100355.88;3836046;31;100863;-62
2020/12/01 03:03:44;;;;;;;17.07;12.00;;;2.30;99.90;;;0.08;100.00;100354.19;3700555;31;100616;-63
2020/12/01 03:06:13;;;;;;;17.30;12.97;;;2.40;99.90;;;0.11;100.00;100351.38;3700216;31;100003;-60
2020/12/01 03:08:41;;;;;;;14.90;11.80;;;2.40;99.90;;;0.08;100.00;100355.03;3864544;31;100247;-62
2020/12/01 03:11:08;;;;;;;17.80;12.90;;;2.30;99.90;;;0.06;100.00;100356.03;3775417;31;101725;-61
2020/12/01 03:13:34;;;;;;;18.17;13.33;;;2.40;99.90;;;0.03;100.00;100348.31;3700065;31;100412;-62
2020/12/01 03:16:04;;;;;;;18.80;13.83;;;2.30;99.90;;;-0.02;100.00;100351.25;3700475;31;99879;-60
2020/12/01 03:18:32;;;;;;;17.03;13.23;;;2.40;99.90;;;-0.01;100.00;100355.56;3796915;31;99951;-59
2020/12/01 03:20:58;;;;;;;19.90;13.63;;;2.40;99.90;;;-0.04;100.00;100345.22;3762162;31;100892;-60
2020/12/01 03:23:25;;;;;;;18.90;12.90;;;2.40;99.90;;;-0.05;100.00;100347.00;3700566;31;100767;-62
2020/12/01 03:25:51;;;;;;;18.57;13.80;;;2.50;99.90;;;-0.05;100.00;100343.53;3700598;31;99846;-62
2020/12/01 03:28:18;;;;;;;16.90;12.37;;;2.40;99.90;;;-0.02;100.00;100346.84;3721915;31;100037;-60
2020/12/01 03:30:44;;;;;;;16.67;12.60;;;2.40;99.90;;;-0.05;100.00;100344.38;3904646;31;101436;-60
2020/12/01 03:33:11;;;;;;;18.63;14.57;;;2.20;99.90;;;-0.08;100.00;100346.31;3835941;31;101309;-60
2020/12/01 03:35:38;;;;;;;17.73;13.53;;;2.30;99.90;;;-0.11;100.00;100342.09;3722925;31;100103;-60
2020/12/01 03:38:04;;;;;;;18.63;13.97;;;2.40;99.90;;;-0.14;100.00;100336.19;3721849;31;99894;-60
2020/12/01 03:40:31;;;;;;;18.27;13.93;;;2.50;99.90;;;-0.12;100.00;100335.13;3750738;31;101045;-59
2020/12/01 03:42:58;;;;;;;18.47;13.33;;;2.50;99.90;;;-0.15;100.00;100331.84;3700107;31;100748;-62
2020/12/01 03:45:25;;;;;;;22.07;15.20;;;3.30;99.90;;;-0.17;100.00;100324.03;3901488;31;99971;-61
2020/12/01 03:47:54;;;;;;;19.17;14.23;;;2.20;99.90;;;-0.19;100.00;100318.03;3796867;31;100319;-60
2020/12/01 03:50:22;;;;;;;19.30;13.87;;;2.30;99.90;;;-0.20;100.00;100318.97;3750698;31;101362;-61
2020/12/01 03:52:49;;;;;;;21.20;15.37;;;2.20;99.90;;;-0.19;100.00;100315.41;3949992;31;101306;-61
2020/12/01 03:55:16;;;;;;;21.43;14.43;;;2.20;99.90;;;-0.17;100.00;100318.78;3787057;31;99976;-62
2020/12/01 03:57:43;;;;;;;19.10;14.57;;;2.20;99.90;;;-0.19;100.00;100314.56;3708971;31;100032;-62
2020/12/01 04:00:11;;;;;;;21.43;15.53;;;2.30;99.90;;;-0.20;100.00;100318.97;3758082;31;100197;-61
2020/12/01 04:02:38;;;;;;;19.33;14.20;;;2.30;99.90;;;-0.19;100.00;100320.66;3700088;31;100596;-61
2020/12/01 04:05:05;;;;;;;19.27;14.60;;;2.10;99.90;;;-0.18;100.00;100319.72;3906723;31;100225;-61
2020/12/01 04:07:32;;;;;;;18.60;14.97;;;2.10;99.90;;;-0.19;100.00;100312.75;3816357;31;100167;-61
2020/12/01 04:09:59;;;;;;;22.67;15.77;;;2.20;99.90;;;-0.17;100.00;100318.78;3764662;31;100803;-61
2020/12/01 04:12:27;;;;;;;22.03;15.50;;;2.20;99.90;;;-0.17;100.00;100316.16;3701977;31;100463;-61
2020/12/01 04:14:53;;;;;;;20.13;14.83;;;2.00;99.90;;;-0.18;100.00;100316.25;3899501;31;100178;-62
2020/12/01 04:17:20;;;;;;;18.53;15.53;;;2.20;99.90;;;-0.22;100.00;100309.47;3840550;31;100191;-60
2020/12/01 04:19:46;;;;;;;22.67;15.77;;;2.20;99.90;;;-0.24;100.00;100309.53;3827821;31;100838;-61
2020/12/01 04:22:14;;;;;;;21.23;15.33;;;2.30;99.90;;;-0.25;100.00;100310.50;3704653;31;100591;-61
2020/12/01 04:24:41;;;;;;;21.17;16.30;;;2.10;99.90;;;-0.27;100.00;100306.28;3702022;31;100008;-61
2020/12/01 04:27:08;;;;;;;19.57;14.73;;;2.10;99.90;;;-0.27;100.00;100299.22;3712423;31;99937;-61
2020/12/01 04:29:35;;;;;;;20.43;15.27;;;2.10;99.90;;;-0.26;100.00;100300.06;3939077;31;101162;-60
2020/12/01 04:32:02;;;;;;;21.50;16.37;;;2.10;99.90;;;-0.25;100.00;100302.63;3797951;31;100490;-60
2020/12/01 04:34:29;;;;;;;20.27;15.23;;;2.00;99.90;;;-0.28;100.00;100297.53;3691046;31;100144;-59
2020/12/01 04:36:56;;;;;;;21.07;15.77;;;2.10;99.90;;;-0.30;100.00;100295.91;3723399;31;99914;-61
2020/12/01 04:39:22;;;;;;;21.47;15.80;;;2.30;99.90;;;-0.31;100.00;100288.97;3748546;31;101011;-60
2020/12/01 04:41:49;;;;;;;22.23;17.33;;;2.00;99.90;;;-0.31;100.00;100292.44;3964247;31;100698;-61
2020/12/01 04:44:26;;;;;;;21.77;15.30;;;2.00;99.90;;;-0.29;100.00;100300.25;3846929;31;100236;-61
2020/12/01 04:46:54;;;;;;;23.83;16.87;;;2.00;99.90;;;-0.32;100.00;100301.25;3770501;31;100208;-60
2020/12/01 04:49:26;;;;;;;22.10;16.10;;;2.10;99.90;;;-0.28;100.00;100299.31;3756305;31;101176;-61
2020/12/01 04:52:20;;;;;;;23.07;17.43;;;2.00;99.90;;;-0.28;100.00;100302.78;3748652;31;100257;-62
2020/12/01 04:55:16;;;;;;;22.30;17.47;;;2.00;99.90;;;-0.30;100.00;100298.56;3802530;31;100129;-61
2020/12/01 04:58:33;;;;;;;21.93;16.90;;;2.00;99.90;;;-0.29;100.00;100295.00;3703638;31;99930;-60
2020/12/01 05:01:10;;;;;;;24.00;16.67;;;2.00;99.90;;;-0.29;100.00;100298.47;3750172;31;101137;-61
2020/12/01 05:03:59;;;;;;;20.83;16.13;;;2.00;99.90;;;-0.31;100.00;100295.06;3701710;31;100492;-60
2020/12/01 05:06:51;;;;;;;21.03;15.73;;;2.10;99.90;;;-0.30;100.00;100295.91;3842922;31;100140;-61
2020/12/01 05:09:22;;;;;;;24.60;18.20;;;1.90;99.90;;;-0.30;100.00;100302.03;3722694;31;99936;-61
2020/12/01 05:11:55;;;;;;;22.60;16.17;;;2.00;99.90;;;-0.29;100.00;100308.13;3762354;31;100894;-61
2020/12/01 05:14:29;;;;;;;26.40;19.03;;;2.10;99.90;;;-0.31;100.00;100305.59;3817635;31;100681;-61
2020/12/01 05:17:27;;;;;;;25.73;18.27;;;2.10;99.90;;;-0.29;100.00;100297.63;3803244;31;100162;-60
2020/12/01 05:19:54;;;;;;;22.97;16.73;;;2.10;99.90;;;-0.29;100.00;100306.34;3722620;31;99957;-61
2020/12/01 05:22:22;;;;;;;26.80;18.17;;;2.00;99.90;;;-0.29;100.00;100302.88;3756344;31;101244;-59
2020/12/01 05:24:51;;;;;;;25.27;16.50;;;2.00;99.90;;;-0.32;100.00;100309.16;3944274;31;101328;-59
2020/12/01 05:27:24;;;;;;;25.23;18.60;;;2.00;99.90;;;-0.30;100.00;100299.41;3727233;31;100014;-61
2020/12/01 05:30:03;;;;;;;25.30;18.57;;;2.10;99.90;;;-0.32;100.00;100303.91;3861144;31;100022;-61
2020/12/01 05:32:35;;;;;;;23.70;17.97;;;2.00;99.90;;;-0.33;100.00;100294.31;3760697;31;101375;-61
2020/12/01 05:35:18;;;;;;;26.80;19.20;;;2.10;99.90;;;-0.32;100.00;100298.63;3845984;31;100873;-60
2020/12/01 05:38:01;;;;;;;25.53;18.03;;;1.90;99.90;;;-0.33;100.00;100309.25;3882647;31;100008;-63
2020/12/01 05:40:31;;;;;;;24.70;18.40;;;2.00;99.90;;;-0.36;100.00;100310.25;3711609;31;100189;-62
2020/12/01 05:42:58;;;;;;;25.10;18.43;;;1.50;99.90;;;-0.34;100.00;100305.75;3798402;31;100678;-62
2020/12/01 05:45:30;;;;;;;26.73;19.53;;;1.90;99.90;;;-0.41;100.00;100302.66;3743663;31;100706;-62
2020/12/01 05:48:34;;;;;;;27.20;19.27;;;2.00;99.90;;;-0.48;100.00;100297.81;3794181;31;100368;-61
2020/12/01 05:51:06;;;;;;;27.03;19.63;;;1.80;99.90;;;-0.50;100.00;100310.22;3817915;31;100362;-61
2020/12/01 05:53:33;;;;;;;27.90;18.80;;;1.90;99.90;;;-0.56;100.00;100315.81;3746214;31;101686;-60
2020/12/01 05:56:15;;;;;;;27.73;20.30;;;1.90;99.90;;;-0.59;100.00;100310.72;3963970;31;100904;-62
2020/12/01 05:58:46;;;;;;;30.60;20.30;;;1.90;99.90;;;-0.61;100.00;100312.59;3700930;31;99973;-61
2020/12/01 06:01:13;;;;;;;27.50;19.77;;;1.70;99.90;;;-0.66;100.00;100314.66;3789275;31;100219;-62
2020/12/01 06:04:10;;;;;;;28.97;21.23;;;1.80;99.90;;;-0.67;100.00;100316.44;3759867;31;101610;-62
2020/12/01 06:06:58;;;;;;;29.67;20.57;;;1.70;99.90;;;-0.68;100.00;100330.50;3700915;31;100414;-62
2020/12/01 06:10:04;;;;;;;28.03;19.87;;;1.60;99.90;;;-0.67;100.00;100326.94;3909219;31;99962;-63
2020/12/01 06:13:08;;;;;;;29.47;21.50;;;2.90;99.90;;;-0.70;100.00;100329.72;3832955;31;100062;-63
2020/12/01 06:15:38;;;;;;;30.57;21.73;;;1.60;99.90;;;-0.68;100.00;100330.50;3978033;31;101709;-62
2020/12/01 06:18:15;;;;;;;30.10;22.00;;;1.60;99.90;;;-0.67;100.00;100329.56;3700862;31;100605;-62
2020/12/01 06:20:54;;;;;;;30.07;22.13;;;1.60;99.90;;;-0.64;100.00;100332.03;3700970;31;100155;-62
2020/12/01 06:23:57;;;;;;;31.40;22.53;;;1.60;99.90;;;-0.60;100.00;100327.44;3841826;31;100258;-63
2020/12/01 06:27:11;;;;;;;29.40;21.73;;;1.60;99.90;;;-0.59;100.00;100331.75;3947213;31;100197;-62
2020/12/01 06:30:24;;;;;;;29.50;21.00;;;1.60;99.90;;;-0.56;100.00;100332.44;3700876;31;100303;-62
2020/12/01 06:33:36;;;;;;;26.57;18.13;;;1.60;99.90;;;-0.55;100.00;100333.28;3700454;31;100194;-62
2020/12/01 06:36:48;;;;;;;29.70;20.17;;;1.60;99.90;;;-0.51;100.00;100340.91;3718358;31;99997;-62
2020/12/01 06:39:41;;;;;;;29.67;21.43;;;1.70;99.90;;;-0.49;100.00;100341.66;3941531;31;101378;-62
2020/12/01 06:42:14;;;;;;;32.20;23.27;;;1.70;99.90;;;-0.45;100.00;100337.06;3700715;31;100289;-61
2020/12/01 06:44:45;;;;;;;32.40;24.77;;;1.70;99.90;;;-0.46;100.00;100338.00;3700670;31;100064;-60
2020/12/01 06:47:12;;;;;;;34.17;24.37;;;1.80;99.90;;;-0.45;100.00;100344.97;3820559;31;100073;-60
2020/12/01 06:49:40;;;;;;;37.03;24.80;;;1.80;99.90;;;-0.44;100.00;100344.03;3977380;31;101039;-61
2020/12/01 06:52:13;;;;;;;39.17;28.73;;;1.80;99.90;;;-0.43;100.00;100337.84;3700285;31;100853;-60
2020/12/01 06:54:51;;;;;;;36.27;23.73;;;1.80;99.90;;;-0.43;100.00;100343.94;3700949;31;100069;-61
2020/12/01 06:57:29;;;;;;;31.97;24.17;;;1.80;99.90;;;-0.43;100.00;100336.06;3721869;31;100126;-62
2020/12/01 06:59:56;;;;;;;28.67;21.10;;;1.90;99.90;;;-0.44;100.00;100337.00;3917057;31;100471;-62
2020/12/01 07:02:31;;;;;;;46.40;32.53;;;1.80;99.90;;;-0.43;100.00;100333.44;3772119;31;100004;-61
2020/12/01 07:05:08;;;;;;;47.80;33.10;;;1.80;99.90;;;-0.39;100.00;100340.22;3726512;31;99880;-61
2020/12/01 07:07:44;;;;;;;34.40;26.47;;;1.70;99.90;;;-0.38;100.00;100338.44;3721783;31;100067;-60
2020/12/01 07:10:22;;;;;;;31.90;23.33;;;1.80;99.90;;;-0.37;100.00;100350.63;3755581;31;101457;-60
2020/12/01 07:12:55;;;;;;;33.10;22.43;;;1.80;99.90;;;-0.34;100.00;100353.09;3949088;31;100285;-61
2020/12/01 07:15:38;;;;;;;31.30;22.97;;;1.80;99.90;;;-0.32;100.00;100353.84;3700692;31;100214;-61
2020/12/01 07:18:15;;;;;;;30.10;20.43;;;1.90;99.90;;;-0.28;100.00;100357.16;3721245;31;100423;-60
2020/12/01 07:21:01;;;;;;;31.03;21.97;;;1.90;99.90;;;-0.25;100.00;100360.47;3752345;31;101010;-61
2020/12/01 07:23:33;;;;;;;29.30;20.17;;;1.90;99.90;;;-0.29;100.00;100358.09;3699910;31;101407;-62
2020/12/01 07:26:20;;;;;;;31.13;21.97;;;2.00;99.90;;;-0.23;100.00;100361.19;3699841;31;99990;-64
2020/12/01 07:29:03;;;;;;;32.43;22.87;;;1.90;99.90;;;-0.27;100.00;100359.72;3721835;31;99911;-61
2020/12/01 07:31:34;;;;;;;28.57;18.87;;;2.00;99.90;;;-0.25;100.00;100359.63;3748828;31;102147;-60
2020/12/01 07:34:05;;;;;;;29.60;21.43;;;2.00;99.90;;;-0.22;100.00;100368.16;3904624;31;101463;-61
2020/12/01 07:36:41;;;;;;;27.27;19.83;;;2.10;99.90;;;-0.21;100.00;100366.38;3700452;31;100113;-61
2020/12/01 07:39:21;;;;;;;27.83;20.87;;;2.10;99.90;;;-0.19;100.00;100372.41;3721316;31;99944;-60
2020/12/01 07:41:53;;;;;;;27.50;20.53;;;2.40;99.90;;;-0.18;100.00;100374.94;3815787;31;101125;-61
2020/12/01 07:44:22;;;;;;;28.77;20.60;;;2.20;99.90;;;-0.16;100.00;100375.72;3963243;31;101338;-61
2020/12/01 07:47:06;;;;;;;27.87;20.43;;;2.10;99.90;;;-0.15;100.00;100380.03;3755900;31;99972;-62
2020/12/01 07:49:35;;;;;;;24.90;19.27;;;2.10;99.90;;;-0.13;100.00;100383.44;3822172;31;100019;-60
2020/12/01 07:52:18;;;;;;;26.60;19.23;;;2.10;99.90;;;-0.11;100.00;100380.69;3718156;31;100861;-59
2020/12/01 07:54:54;;;;;;;28.37;19.90;;;2.20;99.90;;;-0.10;100.00;100380.59;3700278;31;101329;-61
2020/12/01 07:57:22;;;;;;;28.23;21.37;;;2.30;99.90;;;-0.07;100.00;100390.09;3699986;31;99939;-63
2020/12/01 07:59:51;;;;;;;27.17;20.93;;;2.30;99.90;;;-0.07;100.00;100384.84;3960798;31;100039;-59
2020/12/01 08:02:24;;;;;;;29.03;20.73;;;2.20;99.90;;;-0.04;100.00;100388.16;3832071;31;101172;-61
2020/12/01 08:05:00;;;;;;;27.00;19.57;;;2.20;99.90;;;-0.03;100.00;100386.38;3852502;31;100700;-60
2020/12/01 08:07:26;;;;;;;25.37;19.47;;;2.20;99.90;;;0.01;100.00;100382.59;3861231;31;100140;-59
2020/12/01 08:10:03;;;;;;;29.80;21.17;;;2.20;99.90;;;0.06;100.00;100385.84;3789415;31;100155;-63
2020/12/01 08:12:39;;;;;;;27.70;19.83;;;2.40;99.90;;;0.05;100.00;100384.13;3760893;31;100703;-63
2020/12/01 08:15:13;;;;;;;30.47;20.93;;;2.30;99.90;;;0.11;100.00;100390.84;3699715;31;100557;-62
2020/12/01 08:17:40;;;;;;;29.33;21.53;;;2.40;99.90;;;0.11;100.00;100385.56;3688694;31;99963;-60
2020/12/01 08:20:07;;;;;;;30.40;20.63;;;2.50;99.90;;;0.15;100.00;100387.91;3721140;31;99914;-62
2020/12/01 08:22:38;;;;;;;31.03;21.27;;;2.50;99.90;;;0.15;100.00;100379.19;3742880;31;100746;-60
2020/12/01 08:25:12;;;;;;;30.53;20.63;;;2.30;99.90;;;0.18;100.00;100387.75;3699915;31;101565;-64
2020/12/01 08:27:44;;;;;;;29.43;22.43;;;2.40;99.90;;;0.19;100.00;100393.84;3723456;31;100004;-60
2020/12/01 08:30:26;;;;;;;29.13;20.23;;;2.40;99.90;;;0.27;100.00;100397.72;3890537;31;100091;-60
2020/12/01 08:33:03;;;;;;;28.63;21.10;;;2.60;99.90;;;0.25;100.00;100394.31;3750193;31;101123;-62
2020/12/01 08:35:38;;;;;;;30.23;21.73;;;2.60;99.90;;;0.27;100.00;100397.72;3950451;31;101224;-60
2020/12/01 08:38:15;;;;;;;30.13;20.33;;;2.60;99.90;;;0.28;100.00;100395.94;3905056;31;100204;-63
2020/12/01 08:40:50;;;;;;;29.57;20.90;;;2.70;99.90;;;0.31;100.00;100407.16;3801981;31;100302;-60
2020/12/01 08:43:33;;;;;;;31.33;22.37;;;2.60;99.90;;;0.32;100.00;100400.09;3879209;31;100661;-60
2020/12/01 08:46:08;;;;;;;28.10;18.77;;;2.70;99.90;;;0.37;100.00;100408.59;3965190;31;100376;-61
2020/12/01 08:48:46;;;;;;;30.20;21.70;;;2.70;99.90;;;0.40;100.00;100410.16;3908849;31;100151;-60
2020/12/01 08:51:26;;;;;;;30.10;21.37;;;2.80;99.90;;;0.44;100.00;100406.41;3836762;31;100091;-61
2020/12/01 08:54:05;;;;;;;29.83;20.47;;;2.70;99.90;;;0.40;100.00;100410.16;3747535;31;101470;-62
2020/12/01 08:56:56;;;;;;;30.87;21.37;;;2.90;99.90;;;0.40;100.00;100418.91;3813187;31;100458;-60
2020/12/01 08:59:29;;;;;;;31.70;21.10;;;2.90;99.90;;;0.49;100.00;100417.53;3701674;31;99940;-62
2020/12/01 09:02:03;;;;;;;30.10;21.63;;;2.80;99.90;;;0.47;100.00;100415.00;3728492;31;99985;-61
2020/12/01 09:04:33;;;;;;;33.53;23.57;;;3.00;99.90;;;0.54;100.00;100412.81;3774051;31;101036;-61
2020/12/01 09:07:09;;;;;;;31.53;23.20;;;3.00;99.90;;;0.76;100.00;100418.50;3998335;31;101296;-61
2020/12/01 09:09:36;;;;;;;32.83;22.30;;;3.00;99.90;;;0.69;100.00;100420.66;3849871;31;100059;-60
2020/12/01 09:12:27;;;;;;;29.57;21.73;;;3.00;99.90;;;0.59;100.00;100419.53;3783280;31;100045;-61
2020/12/01 09:15:16;;;;;;;28.03;22.03;;;3.10;99.90;;;0.57;100.00;100421.41;3752094;31;100481;-62
2020/12/01 09:18:01;;;;;;;30.00;22.23;;;3.10;99.90;;;0.64;100.00;100417.44;3832884;31;102033;-61
2020/12/01 09:20:55;;;;;;;28.13;21.50;;;3.10;99.90;;;0.74;100.00;100425.66;3818479;31;99998;-61
2020/12/01 09:23:25;;;;;;;29.07;22.00;;;3.20;99.90;;;0.80;100.00;100422.66;3836159;31;100160;-61
2020/12/01 09:25:54;;;;;;;31.80;22.10;;;3.20;99.90;;;0.65;100.00;100419.13;3701387;31;101529;-62
2020/12/01 09:28:26;;;;;;;29.17;21.47;;;3.20;99.90;;;0.61;100.00;100420.28;3908634;31;100050;-63
2020/12/01 09:30:52;;;;;;;28.50;21.73;;;3.20;99.90;;;0.59;100.00;100423.94;3701439;31;99958;-62
2020/12/01 09:33:23;;;;;;;28.80;20.40;;;3.20;99.90;;;0.76;100.00;100433.44;3722702;31;100227;-62
2020/12/01 09:35:50;;;;;;;29.60;20.60;;;3.60;99.90;;;0.73;100.00;100431.03;3849906;31;102043;-62
2020/12/01 09:38:18;;;;;;;31.53;22.40;;;3.90;99.90;;;0.75;100.00;100427.31;3701725;31;100459;-63
2020/12/01 09:40:47;;;;;;;29.33;17.50;;;3.30;99.90;;;0.71;100.00;100433.75;3975083;31;100098;-62
2020/12/01 09:43:18;;;;;;;27.80;21.37;;;3.30;99.90;;;0.75;100.00;100429.13;3743571;31;100313;-61
2020/12/01 09:45:46;;;;;;;31.13;22.47;;;3.20;99.90;;;0.83;100.00;100433.00;3934635;31;100683;-61
2020/12/01 09:48:16;;;;;;;28.80;22.30;;;3.20;99.90;;;0.80;100.00;100430.53;3779846;31;100757;-60
2020/12/01 09:50:44;;;;;;;29.83;21.87;;;3.30;99.90;;;0.80;100.00;100432.34;3706034;31;100055;-62
2020/12/01 09:56:03;;;;;;;28.03;19.73;;;3.30;99.90;;;0.88;100.00;100430.91;3759616;31;100739;-62
2020/12/01 10:09:20;;;;;;;30.13;20.73;;;3.50;99.90;;;0.95;100.00;100426.97;3711985;31;100721;-61
2020/12/01 10:12:12;;;;;;;29.17;21.80;;;3.40;99.90;;;0.86;100.00;100424.06;3883036;31;100305;-62
2020/12/01 10:17:42;;;;;;;26.83;17.53;;;3.50;99.90;;;1.02;100.00;100427.44;3711993;31;100823;-63
2020/12/01 10:34:17;;;;;;;29.90;23.60;;;3.70;99.90;;;1.01;100.00;100421.31;3949283;31;99997;-62
2020/12/01 10:36:44;;;;;;;29.10;20.73;;;4.70;99.90;;;1.20;100.00;100422.84;3750566;31;100031;-62
2020/12/01 10:39:11;;;;;;;25.20;20.40;;;3.70;99.90;;;1.32;100.00;100422.06;3773591;31;100842;-62
2020/12/01 10:41:39;;;;;;;23.57;18.80;;;3.80;99.90;;;1.34;100.00;100422.81;3711513;31;101496;-61
2020/12/01 10:44:07;;;;;;;25.37;19.07;;;3.70;99.90;;;1.27;100.00;100416.22;3914160;31;99967;-61
2020/12/01 10:46:33;;;;;;;24.57;19.77;;;3.90;99.90;;;1.46;100.00;100427.31;3819814;31;100376;-64
2020/12/01 10:49:00;;;;;;;24.40;17.67;;;4.00;99.90;;;1.52;100.00;100426.91;3774594;31;100103;-62
2020/12/01 10:51:27;;;;;;;26.97;20.47;;;4.00;99.90;;;1.71;100.00;100426.59;3711812;31;100624;-60